Summitville, Colorado
Current Conditions -  °F | °C
As of 12:50 AM on Sunday 26 Oct 2014 (Local Time) from KRCV Reporting Station
Clear Clear  
Wind Chill:   Ceiling: Unl
Heat Index:   Visibility: 10mi
Dew Point: -3°   Wind: 8mph
Humidity: 49%   Direction: 280°W
Pressure: 30.26"   Gusts: NA
Location:  37.6359°N, 106.449°W
Report Text: KRCV 260650Z AUTO 28007KT 10SM CLR 08/M02 A3026 RMK AO2 T00761025 402160046
Loading
Personal Weather Stations






























Interactive Weather Map
Tropical Storm Tracking
New forecast layout! Learn more

10-Day Weather Forecast

Advertisements
Track Severe Weather on mobile